sensor_id;sensor_type;location;lat;lon;timestamp;temperature;humidity
12460;DHT22;6295;49.452;8.466;2023-06-26T03:14:12;18.40;99.90
12460;DHT22;6295;49.452;8.466;2023-06-26T03:18:15;18.30;99.90
12460;DHT22;6295;49.452;8.466;2023-06-26T03:22:17;18.30;99.90
12460;DHT22;6295;49.452;8.466;2023-06-26T03:26:19;18.30;99.90
12460;DHT22;6295;49.452;8.466;2023-06-26T03:30:22;18.20;99.90
12460;DHT22;6295;49.452;8.466;2023-06-26T03:34:24;18.20;99.90
12460;DHT22;6295;49.452;8.466;2023-06-26T03:38:26;18.20;99.90
12460;DHT22;6295;49.452;8.466;2023-06-26T03:42:28;18.20;99.90
12460;DHT22;6295;49.452;8.466;2023-06-26T03:46:32;18.20;99.90
12460;DHT22;6295;49.452;8.466;2023-06-26T03:50:34;18.10;99.90
12460;DHT22;6295;49.452;8.466;2023-06-26T03:54:36;18.10;99.90
12460;DHT22;6295;49.452;8.466;2023-06-26T03:58:38;18.10;99.90
12460;DHT22;6295;49.452;8.466;2023-06-26T04:02:41;18.20;99.90
12460;DHT22;6295;49.452;8.466;2023-06-26T04:06:43;18.20;99.90
12460;DHT22;6295;49.452;8.466;2023-06-26T04:10:45;18.30;99.90
12460;DHT22;6295;49.452;8.466;2023-06-26T04:18:52;18.40;99.90
12460;DHT22;6295;49.452;8.466;2023-06-26T04:22:54;18.50;99.90
12460;DHT22;6295;49.452;8.466;2023-06-26T04:26:56;18.50;99.90
12460;DHT22;6295;49.452;8.466;2023-06-26T04:30:58;18.60;99.90
12460;DHT22;6295;49.452;8.466;2023-06-26T04:39:04;18.70;99.90
12460;DHT22;6295;49.452;8.466;2023-06-26T04:43:06;18.70;99.90
12460;DHT22;6295;49.452;8.466;2023-06-26T04:47:09;18.80;99.90
12460;DHT22;6295;49.452;8.466;2023-06-26T04:51:12;19.00;99.90
12460;DHT22;6295;49.452;8.466;2023-06-26T04:55:14;19.10;99.90
12460;DHT22;6295;49.452;8.466;2023-06-26T05:03:19;19.30;99.90
12460;DHT22;6295;49.452;8.466;2023-06-26T05:07:23;19.40;99.90
12460;DHT22;6295;49.452;8.466;2023-06-26T05:11:26;19.60;99.90
12460;DHT22;6295;49.452;8.466;2023-06-26T05:15:28;19.70;99.90
12460;DHT22;6295;49.452;8.466;2023-06-26T05:23:34;20.10;99.90
12460;DHT22;6295;49.452;8.466;2023-06-26T05:27:37;20.30;99.90
12460;DHT22;6295;49.452;8.466;2023-06-26T05:35:45;20.70;99.90
12460;DHT22;6295;49.452;8.466;2023-06-26T05:39:49;20.80;99.90
12460;DHT22;6295;49.452;8.466;2023-06-26T05:43:51;21.10;99.90
12460;DHT22;6295;49.452;8.466;2023-06-26T05:47:55;21.20;99.90
12460;DHT22;6295;49.452;8.466;2023-06-26T05:51:57;21.40;99.90
12460;DHT22;6295;49.452;8.466;2023-06-26T05:56:01;21.50;99.90
12460;DHT22;6295;49.452;8.466;2023-06-26T06:00:04;21.70;99.90
12460;DHT22;6295;49.452;8.466;2023-06-26T06:04:14;21.80;99.90
12460;DHT22;6295;49.452;8.466;2023-06-26T06:08:19;21.90;99.90
12460;DHT22;6295;49.452;8.466;2023-06-26T06:12:24;22.00;99.90
12460;DHT22;6295;49.452;8.466;2023-06-26T06:20:30;22.20;99.90
12460;DHT22;6295;49.452;8.466;2023-06-26T06:24:32;22.30;99.90
12460;DHT22;6295;49.452;8.466;2023-06-26T06:28:35;22.40;99.90
12460;DHT22;6295;49.452;8.466;2023-06-26T06:32:37;22.50;99.90
12460;DHT22;6295;49.452;8.466;2023-06-26T06:40:42;22.70;99.90
12460;DHT22;6295;49.452;8.466;2023-06-26T06:44:49;22.90;99.90
12460;DHT22;6295;49.452;8.466;2023-06-26T06:48:53;23.00;99.90
12460;DHT22;6295;49.452;8.466;2023-06-26T06:52:55;23.10;99.90
12460;DHT22;6295;49.452;8.466;2023-06-26T06:56:58;23.20;99.90
12460;DHT22;6295;49.452;8.466;2023-06-26T07:01:02;23.40;99.90
12460;DHT22;6295;49.452;8.466;2023-06-26T07:05:05;23.50;99.90
12460;DHT22;6295;49.452;8.466;2023-06-26T07:09:08;23.60;99.90
12460;DHT22;6295;49.452;8.466;2023-06-26T07:13:10;23.70;99.90
12460;DHT22;6295;49.452;8.466;2023-06-26T07:17:13;23.90;99.90
12460;DHT22;6295;49.452;8.466;2023-06-26T07:21:15;24.00;99.90
12460;DHT22;6295;49.452;8.466;2023-06-26T07:25:19;24.10;99.90
12460;DHT22;6295;49.452;8.466;2023-06-26T07:29:25;24.30;99.90
12460;DHT22;6295;49.452;8.466;2023-06-26T07:33:29;24.50;99.90
12460;DHT22;6295;49.452;8.466;2023-06-26T07:37:31;24.60;99.90
12460;DHT22;6295;49.452;8.466;2023-06-26T07:41:33;24.70;99.90
12460;DHT22;6295;49.452;8.466;2023-06-26T07:45:35;24.90;99.90
12460;DHT22;6295;49.452;8.466;2023-06-26T07:49:42;25.00;99.90
12460;DHT22;6295;49.452;8.466;2023-06-26T07:53:46;25.20;99.90
12460;DHT22;6295;49.452;8.466;2023-06-26T07:57:49;25.30;99.90
12460;DHT22;6295;49.452;8.466;2023-06-26T08:01:54;25.40;99.90
12460;DHT22;6295;49.452;8.466;2023-06-26T08:05:58;25.60;99.90
12460;DHT22;6295;49.452;8.466;2023-06-26T08:10:00;25.70;99.90
12460;DHT22;6295;49.452;8.466;2023-06-26T08:14:02;25.80;99.90
12460;DHT22;6295;49.452;8.466;2023-06-26T08:18:04;25.90;99.90
12460;DHT22;6295;49.452;8.466;2023-06-26T08:22:08;26.10;99.90
12460;DHT22;6295;49.452;8.466;2023-06-26T08:26:11;26.20;99.90
12460;DHT22;6295;49.452;8.466;2023-06-26T08:30:15;26.30;99.90
12460;DHT22;6295;49.452;8.466;2023-06-26T08:38:21;26.50;99.90
12460;DHT22;6295;49.452;8.466;2023-06-26T08:42:23;26.50;99.90
12460;DHT22;6295;49.452;8.466;2023-06-26T08:46:25;26.50;99.90
12460;DHT22;6295;49.452;8.466;2023-06-26T08:50:30;26.40;99.90
12460;DHT22;6295;49.452;8.466;2023-06-26T08:54:36;26.40;99.90
12460;DHT22;6295;49.452;8.466;2023-06-26T08:58:41;26.40;99.90
12460;DHT22;6295;49.452;8.466;2023-06-26T09:02:46;26.50;99.90
12460;DHT22;6295;49.452;8.466;2023-06-26T09:06:49;26.50;99.90
12460;DHT22;6295;49.452;8.466;2023-06-26T09:10:53;26.60;99.90
12460;DHT22;6295;49.452;8.466;2023-06-26T09:14:56;26.70;99.90
12460;DHT22;6295;49.452;8.466;2023-06-26T09:18:58;26.90;99.90
12460;DHT22;6295;49.452;8.466;2023-06-26T09:23:00;27.10;99.90
12460;DHT22;6295;49.452;8.466;2023-06-26T09:27:04;27.30;99.90
12460;DHT22;6295;49.452;8.466;2023-06-26T09:31:07;27.40;99.90
12460;DHT22;6295;49.452;8.466;2023-06-26T09:39:16;27.70;99.90
12460;DHT22;6295;49.452;8.466;2023-06-26T09:43:20;27.80;99.90
12460;DHT22;6295;49.452;8.466;2023-06-26T09:47:22;27.80;99.90
12460;DHT22;6295;49.452;8.466;2023-06-26T09:55:26;27.80;99.90
12460;DHT22;6295;49.452;8.466;2023-06-26T09:59:30;27.90;99.90
12460;DHT22;6295;49.452;8.466;2023-06-26T10:03:32;28.00;99.90
12460;DHT22;6295;49.452;8.466;2023-06-26T10:07:35;28.00;99.90
12460;DHT22;6295;49.452;8.466;2023-06-26T10:11:44;27.90;99.90
12460;DHT22;6295;49.452;8.466;2023-06-26T10:15:55;27.80;99.90
12460;DHT22;6295;49.452;8.466;2023-06-26T10:20:03;27.80;99.90
12460;DHT22;6295;49.452;8.466;2023-06-26T10:24:12;27.90;99.90
12460;DHT22;6295;49.452;8.466;2023-06-26T10:28:15;27.80;99.90
12460;DHT22;6295;49.452;8.466;2023-06-26T10:32:21;27.90;99.90
12460;DHT22;6295;49.452;8.466;2023-06-26T10:36:29;28.00;99.90
12460;DHT22;6295;49.452;8.466;2023-06-26T10:40:40;30.60;99.90
12460;DHT22;6295;49.452;8.466;2023-06-26T10:44:44;28.00;99.90
12460;DHT22;6295;49.452;8.466;2023-06-26T10:49:00;28.00;99.90
12460;DHT22;6295;49.452;8.466;2023-06-26T10:53:12;27.90;99.90
12460;DHT22;6295;49.452;8.466;2023-06-26T10:57:23;27.90;99.90
12460;DHT22;6295;49.452;8.466;2023-06-26T11:01:26;27.90;99.90
12460;DHT22;6295;49.452;8.466;2023-06-26T11:05:32;27.90;99.90
12460;DHT22;6295;49.452;8.466;2023-06-26T11:09:53;28.00;99.90
12460;DHT22;6295;49.452;8.466;2023-06-26T11:13:58;28.10;99.90
12460;DHT22;6295;49.452;8.466;2023-06-26T11:18:01;28.10;99.90
12460;DHT22;6295;49.452;8.466;2023-06-26T11:22:09;28.20;99.90
12460;DHT22;6295;49.452;8.466;2023-06-26T11:26:17;28.30;99.90
12460;DHT22;6295;49.452;8.466;2023-06-26T11:30:24;28.40;99.60
12460;DHT22;6295;49.452;8.466;2023-06-26T11:34:29;28.50;99.30
12460;DHT22;6295;49.452;8.466;2023-06-26T11:38:38;28.60;99.20
12460;DHT22;6295;49.452;8.466;2023-06-26T11:42:40;28.60;98.60
12460;DHT22;6295;49.452;8.466;2023-06-26T11:46:42;28.60;98.70
12460;DHT22;6295;49.452;8.466;2023-06-26T11:50:50;28.70;97.50
12460;DHT22;6295;49.452;8.466;2023-06-26T11:54:54;28.80;97.20
12460;DHT22;6295;49.452;8.466;2023-06-26T11:58:57;28.80;97.60
12460;DHT22;6295;49.452;8.466;2023-06-26T12:07:06;28.70;96.40
12460;DHT22;6295;49.452;8.466;2023-06-26T12:11:12;28.70;94.40
12460;DHT22;6295;49.452;8.466;2023-06-26T12:15:15;28.80;94.70
12460;DHT22;6295;49.452;8.466;2023-06-26T12:19:23;28.90;93.80
12460;DHT22;6295;49.452;8.466;2023-06-26T12:23:32;29.00;93.00
12460;DHT22;6295;49.452;8.466;2023-06-26T12:27:35;29.10;93.20
12460;DHT22;6295;49.452;8.466;2023-06-26T12:31:40;29.20;93.00
12460;DHT22;6295;49.452;8.466;2023-06-26T12:35:43;29.20;92.40
12460;DHT22;6295;49.452;8.466;2023-06-26T12:39:48;29.30;92.70
12460;DHT22;6295;49.452;8.466;2023-06-26T12:43:56;29.40;92.10
12460;DHT22;6295;49.452;8.466;2023-06-26T12:48:07;29.40;90.40
12460;DHT22;6295;49.452;8.466;2023-06-26T12:52:12;29.50;90.40
12460;DHT22;6295;49.452;8.466;2023-06-26T12:56:15;29.50;89.20
12460;DHT22;6295;49.452;8.466;2023-06-26T13:00:19;29.60;90.20
12460;DHT22;6295;49.452;8.466;2023-06-26T13:04:24;29.70;89.00
12460;DHT22;6295;49.452;8.466;2023-06-26T13:12:29;29.80;90.20
12460;DHT22;6295;49.452;8.466;2023-06-26T13:16:33;29.90;88.50
12460;DHT22;6295;49.452;8.466;2023-06-26T13:20:35;30.00;87.10
12460;DHT22;6295;49.452;8.466;2023-06-26T13:24:39;30.00;87.60
12460;DHT22;6295;49.452;8.466;2023-06-26T13:28:42;30.10;86.70
12460;DHT22;6295;49.452;8.466;2023-06-26T13:32:46;30.20;87.00
12460;DHT22;6295;49.452;8.466;2023-06-26T13:36:50;30.20;85.10
12460;DHT22;6295;49.452;8.466;2023-06-26T13:40:52;30.20;81.30
12460;DHT22;6295;49.452;8.466;2023-06-26T13:44:55;30.20;82.50
12460;DHT22;6295;49.452;8.466;2023-06-26T13:48:58;30.10;80.10
12460;DHT22;6295;49.452;8.466;2023-06-26T13:53:00;30.00;79.80
12460;DHT22;6295;49.452;8.466;2023-06-26T13:57:06;30.00;78.50
12460;DHT22;6295;49.452;8.466;2023-06-26T14:01:14;29.90;80.40
12460;DHT22;6295;49.452;8.466;2023-06-26T14:05:21;29.90;80.40
12460;DHT22;6295;49.452;8.466;2023-06-26T14:09:24;29.90;77.90
12460;DHT22;6295;49.452;8.466;2023-06-26T14:13:26;29.80;77.60
12460;DHT22;6295;49.452;8.466;2023-06-26T14:17:28;29.80;79.40
12460;DHT22;6295;49.452;8.466;2023-06-26T14:21:32;29.80;75.60
12460;DHT22;6295;49.452;8.466;2023-06-26T14:25:35;29.80;67.20
12460;DHT22;6295;49.452;8.466;2023-06-26T14:29:37;29.60;66.40
12460;DHT22;6295;49.452;8.466;2023-06-26T14:33:39;29.50;67.70
12460;DHT22;6295;49.452;8.466;2023-06-26T14:37:43;29.30;67.00
12460;DHT22;6295;49.452;8.466;2023-06-26T14:41:47;29.20;67.70
12460;DHT22;6295;49.452;8.466;2023-06-26T14:45:50;29.10;67.40
12460;DHT22;6295;49.452;8.466;2023-06-26T14:49:52;29.00;67.00
12460;DHT22;6295;49.452;8.466;2023-06-26T14:53:56;28.90;66.70
12460;DHT22;6295;49.452;8.466;2023-06-26T14:57:58;29.00;64.80
12460;DHT22;6295;49.452;8.466;2023-06-26T15:02:00;29.00;63.10
12460;DHT22;6295;49.452;8.466;2023-06-26T15:06:03;29.10;64.60
12460;DHT22;6295;49.452;8.466;2023-06-26T15:10:10;29.10;63.20
12460;DHT22;6295;49.452;8.466;2023-06-26T15:14:15;29.10;63.80
12460;DHT22;6295;49.452;8.466;2023-06-26T15:18:17;29.00;62.70
12460;DHT22;6295;49.452;8.466;2023-06-26T15:22:22;28.90;64.60
12460;DHT22;6295;49.452;8.466;2023-06-26T15:26:28;28.80;64.30
12460;DHT22;6295;49.452;8.466;2023-06-26T15:30:31;28.70;63.70
12460;DHT22;6295;49.452;8.466;2023-06-26T15:34:33;28.60;62.80
12460;DHT22;6295;49.452;8.466;2023-06-26T15:38:35;28.60;62.90
12460;DHT22;6295;49.452;8.466;2023-06-26T15:42:48;28.70;61.70
12460;DHT22;6295;49.452;8.466;2023-06-26T15:46:53;28.80;63.30
12460;DHT22;6295;49.452;8.466;2023-06-26T15:54:57;28.90;64.90
12460;DHT22;6295;49.452;8.466;2023-06-26T15:59:01;29.00;64.90
12460;DHT22;6295;49.452;8.466;2023-06-26T16:03:03;29.00;65.30
12460;DHT22;6295;49.452;8.466;2023-06-26T16:07:05;29.00;64.90
12460;DHT22;6295;49.452;8.466;2023-06-26T16:11:07;29.00;64.30
12460;DHT22;6295;49.452;8.466;2023-06-26T16:15:12;28.90;65.70
12460;DHT22;6295;49.452;8.466;2023-06-26T16:19:15;28.90;64.50
12460;DHT22;6295;49.452;8.466;2023-06-26T16:23:17;28.90;64.10
12460;DHT22;6295;49.452;8.466;2023-06-26T16:27:19;28.90;65.50
12460;DHT22;6295;49.452;8.466;2023-06-26T16:31:23;29.00;64.70
12460;DHT22;6295;49.452;8.466;2023-06-26T16:39:30;29.00;64.60
12460;DHT22;6295;49.452;8.466;2023-06-26T16:43:33;29.00;64.90
12460;DHT22;6295;49.452;8.466;2023-06-26T16:47:37;29.00;63.60
12460;DHT22;6295;49.452;8.466;2023-06-26T16:51:39;28.90;63.30
12460;DHT22;6295;49.452;8.466;2023-06-26T16:55:41;28.80;63.60
12460;DHT22;6295;49.452;8.466;2023-06-26T16:59:43;28.70;64.40
12460;DHT22;6295;49.452;8.466;2023-06-26T17:03:46;28.80;65.30
12460;DHT22;6295;49.452;8.466;2023-06-26T17:07:49;28.70;63.00
12460;DHT22;6295;49.452;8.466;2023-06-26T17:11:52;28.30;60.70
12460;DHT22;6295;49.452;8.466;2023-06-26T17:15:55;28.10;62.10
12460;DHT22;6295;49.452;8.466;2023-06-26T17:19:58;27.90;60.80
12460;DHT22;6295;49.452;8.466;2023-06-26T17:24:01;27.60;60.00
12460;DHT22;6295;49.452;8.466;2023-06-26T17:28:03;27.50;60.50
12460;DHT22;6295;49.452;8.466;2023-06-26T17:32:07;27.40;60.80
12460;DHT22;6295;49.452;8.466;2023-06-26T17:36:10;27.40;60.70
12460;DHT22;6295;49.452;8.466;2023-06-26T17:40:13;27.50;60.80
12460;DHT22;6295;49.452;8.466;2023-06-26T17:44:15;27.50;61.10
12460;DHT22;6295;49.452;8.466;2023-06-26T17:48:20;27.40;62.10
12460;DHT22;6295;49.452;8.466;2023-06-26T17:52:25;27.40;63.00
12460;DHT22;6295;49.452;8.466;2023-06-26T17:56:27;27.40;62.50
12460;DHT22;6295;49.452;8.466;2023-06-26T18:00:29;27.20;62.60
12460;DHT22;6295;49.452;8.466;2023-06-26T18:04:32;27.00;62.80
12460;DHT22;6295;49.452;8.466;2023-06-26T18:08:36;26.70;62.60
12460;DHT22;6295;49.452;8.466;2023-06-26T18:16:40;26.40;64.00
12460;DHT22;6295;49.452;8.466;2023-06-26T18:24:46;26.10;64.20
12460;DHT22;6295;49.452;8.466;2023-06-26T18:28:48;26.00;65.00
12460;DHT22;6295;49.452;8.466;2023-06-26T18:32:53;25.90;65.80
12460;DHT22;6295;49.452;8.466;2023-06-26T18:36:55;25.80;67.90
12460;DHT22;6295;49.452;8.466;2023-06-26T18:41:00;25.70;68.50
12460;DHT22;6295;49.452;8.466;2023-06-26T18:45:03;25.60;69.20
12460;DHT22;6295;49.452;8.466;2023-06-26T18:49:06;25.50;69.40
12460;DHT22;6295;49.452;8.466;2023-06-26T18:53:10;25.30;70.00
